createdAt,value
2023-04-22T00:00:23.536Z,9.57
2023-04-22T00:02:50.911Z,12.48
2023-04-22T00:05:20.423Z,10.70
2023-04-22T00:07:48.596Z,10.77
2023-04-22T00:10:15.912Z,9.75
2023-04-22T00:12:43.270Z,10.65
2023-04-22T00:15:11.016Z,11.23
2023-04-22T00:17:38.644Z,9.40
2023-04-22T00:20:07.579Z,11.25
2023-04-22T00:22:34.811Z,9.35
2023-04-22T00:25:02.069Z,10.73
2023-04-22T00:27:29.437Z,9.90
2023-04-22T00:29:56.826Z,9.73
2023-04-22T00:32:24.264Z,9.57
2023-04-22T00:34:51.801Z,10.57
2023-04-22T00:37:19.037Z,9.30
2023-04-22T00:39:47.225Z,10.45
2023-04-22T00:42:14.536Z,9.20
2023-04-22T00:44:42.416Z,9.63
2023-04-22T00:47:10.177Z,9.50
2023-04-22T00:49:37.778Z,10.10
2023-04-22T00:52:05.411Z,9.82
2023-04-22T00:54:34.541Z,10.05
2023-04-22T00:57:03.007Z,9.07
2023-04-22T00:59:30.451Z,8.75
2023-04-22T01:01:57.714Z,10.55
2023-04-22T01:04:25.660Z,10.30
2023-04-22T01:06:53.684Z,10.13
2023-04-22T01:09:21.032Z,11.05
2023-04-22T01:11:48.516Z,8.98
2023-04-22T01:14:16.410Z,12.15
2023-04-22T01:16:44.543Z,10.60
2023-04-22T01:19:12.281Z,11.38
2023-04-22T01:21:43.256Z,10.82
2023-04-22T01:24:10.706Z,10.93
2023-04-22T01:26:38.673Z,9.88
2023-04-22T01:29:06.185Z,10.73
2023-04-22T01:31:33.549Z,10.55
2023-04-22T01:34:00.953Z,10.68
2023-04-22T01:36:28.475Z,11.73
2023-04-22T01:38:56.304Z,11.63
2023-04-22T01:41:23.733Z,12.20
2023-04-22T01:43:52.071Z,10.38
2023-04-22T01:46:19.530Z,10.02
2023-04-22T01:48:51.245Z,12.23
2023-04-22T01:51:21.616Z,11.88
2023-04-22T01:53:49.402Z,10.80
2023-04-22T01:56:16.777Z,12.20
2023-04-22T01:58:44.087Z,12.23
2023-04-22T02:01:12.004Z,12.63
2023-04-22T02:03:39.628Z,11.32
2023-04-22T02:06:07.630Z,11.98
2023-04-22T02:08:35.092Z,10.05
2023-04-22T02:11:02.434Z,11.35
2023-04-22T02:13:36.880Z,11.82
2023-04-22T02:16:04.755Z,10.65
2023-04-22T02:18:32.011Z,13.30
2023-04-22T02:20:59.269Z,13.18
2023-04-22T02:23:26.836Z,12.05
2023-04-22T02:25:54.707Z,12.20
2023-04-22T02:28:22.579Z,11.02
2023-04-22T02:30:50.287Z,11.65
2023-04-22T02:33:17.501Z,12.07
2023-04-22T02:35:45.013Z,12.45
2023-04-22T02:38:16.976Z,11.50
2023-04-22T02:40:44.317Z,10.75
2023-04-22T02:43:12.623Z,11.52
2023-04-22T02:45:40.853Z,11.98
2023-04-22T02:48:08.509Z,11.45
2023-04-22T02:50:36.761Z,11.10
2023-04-22T02:53:04.244Z,9.98
2023-04-22T02:55:31.554Z,11.82
2023-04-22T02:57:58.922Z,11.35
2023-04-22T03:00:26.272Z,13.07
2023-04-22T03:02:54.002Z,12.57
2023-04-22T03:05:26.042Z,11.80
2023-04-22T03:07:53.878Z,11.98
2023-04-22T03:10:22.044Z,11.32
2023-04-22T03:12:50.050Z,13.25
2023-04-22T03:15:20.577Z,12.40
2023-04-22T03:17:48.865Z,10.73
2023-04-22T03:20:17.089Z,13.55
2023-04-22T03:22:44.572Z,12.05
2023-04-22T03:25:13.869Z,11.48
2023-04-22T03:27:46.315Z,12.63
2023-04-22T03:30:13.614Z,13.23
2023-04-22T03:32:41.143Z,12.48
2023-04-22T03:35:22.386Z,13.50
2023-04-22T03:37:51.663Z,12.80
2023-04-22T03:40:24.153Z,12.25
2023-04-22T03:42:51.554Z,12.77
2023-04-22T03:45:21.434Z,12.98
2023-04-22T03:47:58.271Z,12.13
2023-04-22T03:50:34.770Z,12.57
2023-04-22T03:53:02.279Z,14.02
2023-04-22T03:55:29.635Z,13.57
2023-04-22T03:57:56.946Z,13.35
2023-04-22T04:00:24.652Z,13.55
2023-04-22T04:03:06.083Z,12.40
2023-04-22T04:05:33.813Z,12.00
2023-04-22T04:08:03.498Z,12.02
2023-04-22T04:10:30.743Z,12.90
2023-04-22T04:13:00.081Z,12.43
2023-04-22T04:15:30.528Z,12.73
2023-04-22T04:18:01.170Z,11.68
2023-04-22T04:20:30.781Z,13.82
2023-04-22T04:22:59.363Z,11.30
2023-04-22T04:25:29.250Z,12.90
2023-04-22T04:27:56.731Z,12.20
2023-04-22T04:30:25.642Z,11.80
2023-04-22T04:32:55.637Z,11.25
2023-04-22T04:35:23.707Z,12.30
2023-04-22T04:37:55.278Z,10.98
2023-04-22T04:40:23.174Z,11.40
2023-04-22T04:43:08.236Z,11.73
2023-04-22T04:45:48.712Z,11.43
2023-04-22T04:48:25.082Z,12.77
2023-04-22T04:50:56.619Z,12.73
2023-04-22T04:53:26.117Z,12.27
2023-04-22T04:55:53.652Z,11.80
2023-04-22T04:58:23.260Z,12.43
2023-04-22T05:01:03.552Z,12.15
2023-04-22T05:03:31.057Z,11.30
2023-04-22T05:05:58.529Z,10.43
2023-04-22T05:08:26.251Z,10.73
2023-04-22T05:11:00.250Z,10.18
2023-04-22T05:13:27.680Z,9.65
2023-04-22T05:15:55.973Z,10.23
2023-04-22T05:18:24.030Z,10.10
2023-04-22T05:20:51.439Z,13.13
2023-04-22T05:23:20.658Z,10.30
2023-04-22T05:25:52.783Z,10.27
2023-04-22T05:28:20.902Z,9.85
2023-04-22T05:30:52.816Z,10.02
2023-04-22T05:33:20.377Z,9.32
2023-04-22T05:35:47.724Z,11.13
2023-04-22T05:38:15.516Z,8.82
2023-04-22T05:40:43.173Z,9.85
2023-04-22T05:43:13.235Z,10.65
2023-04-22T05:45:43.585Z,9.27
2023-04-22T05:48:13.147Z,10.95
2023-04-22T05:50:49.149Z,10.40
2023-04-22T05:53:16.541Z,9.00
2023-04-22T05:55:44.079Z,8.52
2023-04-22T05:58:11.888Z,9.90
2023-04-22T06:00:47.205Z,10.38
2023-04-22T06:03:32.812Z,8.25
2023-04-22T06:06:00.651Z,9.93
2023-04-22T06:08:28.039Z,8.60
2023-04-22T06:10:55.303Z,9.70
2023-04-22T06:13:23.629Z,9.10
2023-04-22T06:15:51.922Z,10.07
2023-04-22T06:18:19.338Z,9.18
2023-04-22T06:20:46.878Z,9.95
2023-04-22T06:23:14.222Z,7.95
2023-04-22T06:25:42.108Z,9.50
2023-04-22T06:28:10.256Z,10.65
2023-04-22T06:30:38.027Z,11.30
2023-04-22T06:33:05.430Z,9.13
2023-04-22T06:35:32.963Z,9.30
2023-04-22T06:38:00.994Z,8.35
2023-04-22T06:40:33.595Z,9.18
2023-04-22T06:43:08.474Z,8.65
2023-04-22T06:46:01.895Z,8.50
2023-04-22T06:49:01.192Z,8.48
2023-04-22T06:51:40.605Z,8.43
2023-04-22T06:54:09.207Z,7.72
2023-04-22T06:56:36.657Z,8.55
2023-04-22T06:59:04.054Z,8.25
2023-04-22T07:01:31.451Z,9.65
2023-04-22T07:03:59.001Z,9.90
2023-04-22T07:06:27.819Z,8.63
2023-04-22T07:08:55.599Z,9.00
2023-04-22T07:11:22.869Z,8.32
2023-04-22T07:13:58.600Z,7.63
2023-04-22T07:16:27.970Z,7.88
2023-04-22T07:18:55.346Z,10.23
2023-04-22T07:21:22.608Z,9.00
2023-04-22T07:23:50.030Z,8.02
2023-04-22T07:26:17.406Z,9.48
2023-04-22T07:28:44.595Z,7.85
2023-04-22T07:31:11.931Z,8.50
2023-04-22T07:33:39.287Z,8.05
2023-04-22T07:36:07.258Z,8.75
2023-04-22T07:38:34.514Z,8.20
2023-04-22T07:41:01.865Z,6.40
2023-04-22T07:43:29.198Z,7.78
2023-04-22T07:45:56.521Z,7.00
2023-04-22T07:48:23.876Z,8.63
2023-04-22T07:50:51.076Z,7.10
2023-04-22T07:53:18.395Z,7.60
2023-04-22T07:55:46.069Z,6.88
2023-04-22T07:58:13.356Z,6.68
2023-04-22T08:00:40.772Z,6.82
2023-04-22T08:03:08.508Z,6.60
2023-04-22T08:05:36.067Z,7.07
2023-04-22T08:08:03.422Z,6.93
2023-04-22T08:10:30.718Z,5.97
2023-04-22T08:12:57.985Z,6.03
2023-04-22T08:15:25.648Z,7.07
2023-04-22T08:17:53.058Z,7.20
2023-04-22T08:20:20.242Z,6.43
2023-04-22T08:22:48.616Z,7.55
2023-04-22T08:25:16.098Z,6.90
2023-04-22T08:27:43.374Z,6.45
2023-04-22T08:30:10.781Z,6.32
2023-04-22T08:32:38.089Z,7.03
2023-04-22T08:35:05.762Z,6.00
2023-04-22T08:37:33.045Z,7.10
2023-04-22T08:40:00.438Z,7.32
2023-04-22T08:42:28.278Z,8.15
2023-04-22T08:44:55.616Z,6.97
2023-04-22T08:47:23.060Z,6.43
2023-04-22T08:49:51.631Z,6.82
2023-04-22T08:52:19.070Z,7.00
2023-04-22T08:54:46.402Z,6.68
2023-04-22T08:57:15.468Z,7.28
2023-04-22T08:59:43.013Z,6.70
2023-04-22T09:02:14.444Z,6.38
2023-04-22T09:04:43.203Z,6.22
2023-04-22T09:07:11.990Z,5.30
2023-04-22T09:09:39.734Z,5.53
2023-04-22T09:12:07.167Z,5.85
2023-04-22T09:14:34.494Z,5.18
2023-04-22T09:17:03.627Z,5.03
2023-04-22T09:19:30.858Z,4.57
2023-04-22T09:22:00.970Z,5.60
2023-04-22T09:24:28.446Z,5.53
2023-04-22T09:26:57.345Z,4.70
2023-04-22T09:29:31.267Z,5.15
2023-04-22T09:31:58.667Z,5.00
2023-04-22T09:34:27.916Z,4.68
2023-04-22T09:36:55.246Z,4.95
2023-04-22T09:39:24.184Z,3.78
2023-04-22T09:41:56.481Z,4.18
2023-04-22T09:44:23.853Z,4.03
2023-04-22T09:46:51.240Z,4.93
2023-04-22T09:49:18.768Z,4.93
2023-04-22T09:51:46.329Z,4.65
2023-04-22T09:54:14.646Z,4.55
2023-04-22T09:56:44.577Z,5.05
2023-04-22T09:59:12.501Z,6.03
2023-04-22T10:01:41.351Z,5.47
2023-04-22T10:04:14.771Z,4.65
2023-04-22T10:06:42.587Z,6.35
2023-04-22T10:09:10.014Z,5.43
2023-04-22T10:11:37.710Z,5.45
2023-04-22T10:14:05.426Z,7.78
2023-04-22T10:16:34.791Z,5.15
2023-04-22T10:19:03.753Z,5.22
2023-04-22T10:21:31.425Z,5.05
2023-04-22T10:24:01.778Z,5.00
2023-04-22T10:26:41.358Z,6.32
2023-04-22T10:29:10.731Z,5.65
2023-04-22T10:31:40.844Z,6.10
2023-04-22T10:34:14.635Z,4.97
2023-04-22T10:37:08.333Z,6.00
2023-04-22T10:39:36.272Z,5.90
2023-04-22T10:42:03.953Z,6.28
2023-04-22T10:44:46.247Z,6.18
2023-04-22T10:47:24.958Z,6.47
2023-04-22T10:49:52.540Z,6.32
2023-04-22T10:52:29.672Z,6.15
2023-04-22T10:54:57.933Z,6.20
2023-04-22T10:57:31.067Z,6.40
2023-04-22T11:00:01.438Z,7.18
2023-04-22T11:02:28.894Z,7.75
2023-04-22T11:05:15.535Z,7.38
2023-04-22T11:07:42.975Z,6.65
2023-04-22T11:10:15.863Z,6.68
2023-04-22T11:12:44.881Z,7.30
2023-04-22T11:15:12.173Z,6.55
2023-04-22T11:17:40.212Z,7.85
2023-04-22T11:20:08.111Z,8.10
2023-04-22T11:22:38.871Z,7.97
2023-04-22T11:25:06.793Z,7.15
2023-04-22T11:27:34.101Z,6.95
2023-04-22T11:30:04.208Z,8.50
2023-04-22T11:32:32.110Z,8.32
2023-04-22T11:34:59.388Z,8.10
2023-04-22T11:37:27.519Z,8.07
2023-04-22T11:40:20.867Z,8.35
2023-04-22T11:42:47.316Z,7.88
2023-04-22T11:45:15.070Z,8.40
2023-04-22T11:47:42.709Z,9.60
2023-04-22T11:50:12.170Z,9.15
2023-04-22T11:52:46.972Z,7.55
2023-04-22T11:55:18.992Z,7.80
2023-04-22T11:57:46.654Z,8.00
2023-04-22T12:00:17.393Z,7.93
2023-04-22T12:02:55.859Z,8.25
2023-04-22T12:05:32.626Z,9.23
2023-04-22T12:08:01.281Z,8.68
2023-04-22T12:10:28.582Z,8.60
2023-04-22T12:12:55.980Z,8.73
2023-04-22T12:15:23.242Z,9.32
2023-04-22T12:17:51.355Z,8.82
2023-04-22T12:20:18.786Z,9.23
2023-04-22T12:22:46.208Z,12.20
2023-04-22T12:25:18.507Z,9.70
2023-04-22T12:27:45.872Z,10.40
2023-04-22T12:30:14.978Z,9.50
2023-04-22T12:32:42.176Z,8.77
2023-04-22T12:35:09.493Z,8.18
2023-04-22T12:37:36.824Z,9.55
2023-04-22T12:40:05.066Z,9.82
2023-04-22T12:42:32.514Z,9.80
2023-04-22T12:44:59.874Z,9.88
2023-04-22T12:47:27.169Z,10.75
2023-04-22T12:49:54.410Z,9.88
2023-04-22T12:52:21.864Z,10.48
2023-04-22T12:54:49.202Z,10.27
2023-04-22T12:57:16.437Z,9.75
2023-04-22T12:59:45.291Z,10.85
2023-04-22T13:02:12.662Z,10.75
2023-04-22T13:04:40.826Z,11.63
2023-04-22T13:07:08.170Z,10.40
2023-04-22T13:09:35.419Z,9.48
2023-04-22T13:12:03.092Z,9.77
2023-04-22T13:14:30.404Z,11.13
2023-04-22T13:16:57.834Z,8.63
2023-04-22T13:19:26.957Z,9.73
2023-04-22T13:21:54.504Z,9.80
2023-04-22T13:24:22.240Z,9.70
2023-04-22T13:26:49.576Z,11.25
2023-04-22T13:29:16.952Z,10.23
2023-04-22T13:31:47.342Z,10.25
2023-04-22T13:34:15.310Z,11.60
2023-04-22T13:36:42.626Z,12.23
2023-04-22T13:39:09.985Z,13.55
2023-04-22T13:41:37.354Z,13.85
2023-04-22T13:44:04.802Z,15.05
2023-04-22T13:46:32.183Z,14.65
2023-04-22T13:48:59.541Z,14.48
2023-04-22T13:51:28.000Z,14.48
2023-04-22T13:53:55.898Z,16.15
2023-04-22T13:56:24.815Z,13.05
2023-04-22T13:58:52.514Z,14.07
2023-04-22T14:01:20.758Z,15.38
2023-04-22T14:03:49.268Z,13.68
2023-04-22T14:06:17.301Z,13.55
2023-04-22T14:08:44.891Z,14.15
2023-04-22T14:11:12.478Z,13.95
2023-04-22T14:13:40.081Z,12.55
2023-04-22T14:16:09.863Z,13.00
2023-04-22T14:18:37.973Z,14.43
2023-04-22T14:21:06.562Z,14.38
2023-04-22T14:23:34.447Z,13.38
2023-04-22T14:26:01.906Z,13.02
2023-04-22T14:28:29.367Z,12.02
2023-04-22T14:30:57.079Z,11.32
2023-04-22T14:33:24.740Z,11.85
2023-04-22T14:35:52.499Z,10.88
2023-04-22T14:38:20.256Z,10.23
2023-04-22T14:40:48.181Z,10.95
2023-04-22T14:43:16.456Z,12.23
2023-04-22T14:45:43.939Z,11.00
2023-04-22T14:48:11.294Z,8.20
2023-04-22T14:50:38.777Z,8.45
2023-04-22T14:53:06.290Z,10.00
2023-04-22T14:55:35.312Z,7.95
2023-04-22T14:58:02.659Z,8.30
2023-04-22T15:00:30.146Z,8.80
2023-04-22T15:02:57.819Z,7.97
2023-04-22T15:05:25.296Z,8.30
2023-04-22T15:07:52.728Z,7.47
2023-04-22T15:10:20.121Z,8.23
2023-04-22T15:12:47.532Z,8.90
2023-04-22T15:15:16.193Z,8.18
2023-04-22T15:17:44.397Z,7.57
2023-04-22T15:20:12.505Z,8.18
2023-04-22T15:22:43.321Z,8.65
2023-04-22T15:25:11.039Z,7.68
2023-04-22T15:27:38.976Z,7.97
2023-04-22T15:30:07.435Z,8.23
2023-04-22T15:32:35.143Z,8.90
2023-04-22T15:35:02.521Z,7.65
2023-04-22T15:37:29.860Z,8.80
2023-04-22T15:39:57.205Z,8.93
2023-04-22T15:42:24.505Z,9.63
2023-04-22T15:44:51.899Z,9.02
2023-04-22T15:47:19.390Z,9.30
2023-04-22T15:49:46.705Z,11.00
2023-04-22T15:52:14.196Z,12.05
2023-04-22T15:54:41.482Z,13.27
2023-04-22T15:57:08.832Z,13.15
2023-04-22T15:59:36.143Z,13.82
2023-04-22T16:02:03.654Z,14.98
2023-04-22T16:04:31.261Z,14.23
2023-04-22T16:06:59.382Z,16.48
2023-04-22T16:09:26.792Z,16.45
2023-04-22T16:11:55.968Z,15.77
2023-04-22T16:14:23.487Z,17.52
2023-04-22T16:16:51.711Z,18.25
2023-04-22T16:19:19.608Z,18.15
2023-04-22T16:21:46.950Z,18.25
2023-04-22T16:24:14.537Z,17.58
2023-04-22T16:26:42.956Z,19.77
2023-04-22T16:29:10.254Z,14.23
2023-04-22T16:31:38.635Z,15.90
2023-04-22T16:34:05.998Z,17.67
2023-04-22T16:36:33.270Z,14.85
2023-04-22T16:39:00.606Z,13.73
2023-04-22T16:41:28.229Z,14.45
2023-04-22T16:43:55.613Z,14.38
2023-04-22T16:46:23.148Z,15.07
2023-04-22T16:48:50.475Z,14.20
2023-04-22T16:51:17.694Z,13.57
2023-04-22T16:53:45.066Z,13.63
2023-04-22T16:56:12.372Z,14.35
2023-04-22T16:58:39.724Z,15.27
2023-04-22T17:01:07.051Z,13.15
2023-04-22T17:03:34.685Z,14.02
2023-04-22T17:06:02.111Z,13.73
2023-04-22T17:08:29.531Z,15.50
2023-04-22T17:10:57.175Z,15.75
2023-04-22T17:13:24.533Z,14.55
2023-04-22T17:15:51.925Z,13.77
2023-04-22T17:18:19.407Z,14.35
2023-04-22T17:20:46.752Z,14.02
2023-04-22T17:23:14.070Z,15.75
2023-04-22T17:25:41.595Z,15.75
2023-04-22T17:28:10.905Z,16.50
2023-04-22T17:30:38.162Z,16.05
2023-04-22T17:33:05.767Z,16.50
2023-04-22T17:35:33.403Z,16.23
2023-04-22T17:38:00.961Z,15.88
2023-04-22T17:40:28.336Z,17.02
2023-04-22T17:42:56.114Z,15.98
2023-04-22T17:45:23.436Z,18.35
2023-04-22T17:47:50.830Z,16.33
2023-04-22T17:50:18.181Z,17.27
2023-04-22T17:52:45.613Z,17.02
2023-04-22T17:55:12.958Z,16.73
2023-04-22T17:57:40.880Z,16.55
2023-04-22T18:00:08.541Z,17.98
2023-04-22T18:02:35.826Z,17.40
2023-04-22T18:05:03.171Z,17.13
2023-04-22T18:07:30.488Z,19.70
2023-04-22T18:09:57.842Z,16.90
2023-04-22T18:12:30.362Z,17.05
2023-04-22T18:14:58.168Z,16.38
2023-04-22T18:17:25.692Z,16.98
2023-04-22T18:20:02.772Z,17.15
2023-04-22T18:22:33.627Z,17.38
2023-04-22T18:25:02.898Z,16.40
2023-04-22T18:27:30.175Z,17.17
2023-04-22T18:29:59.760Z,18.55
2023-04-22T18:32:27.173Z,17.48
2023-04-22T18:34:54.416Z,18.38
2023-04-22T18:37:21.886Z,16.40
2023-04-22T18:39:49.141Z,17.08
2023-04-22T18:42:16.411Z,16.15
2023-04-22T18:44:43.800Z,16.00
2023-04-22T18:47:11.220Z,16.48
2023-04-22T18:49:38.509Z,16.95
2023-04-22T18:52:05.837Z,15.95
2023-04-22T18:54:33.265Z,17.17
2023-04-22T18:57:00.497Z,16.42
2023-04-22T18:59:27.764Z,17.48
2023-04-22T19:01:55.291Z,15.23
2023-04-22T19:04:22.667Z,18.05
2023-04-22T19:06:50.057Z,16.63
2023-04-22T19:09:17.359Z,15.82
2023-04-22T19:11:44.689Z,15.85
2023-04-22T19:14:13.646Z,16.63
2023-04-22T19:16:41.041Z,16.60
2023-04-22T19:19:08.298Z,15.75
2023-04-22T19:21:35.723Z,16.25
2023-04-22T19:24:02.921Z,17.45
2023-04-22T19:26:31.079Z,15.57
2023-04-22T19:28:58.456Z,14.95
2023-04-22T19:31:26.561Z,15.90
2023-04-22T19:33:53.881Z,15.88
2023-04-22T19:36:21.227Z,18.20
2023-04-22T19:38:48.504Z,18.33
2023-04-22T19:41:15.972Z,15.55
2023-04-22T19:43:43.430Z,16.33
2023-04-22T19:46:10.766Z,18.08
2023-04-22T19:48:38.128Z,18.40
2023-04-22T19:51:06.580Z,16.80
2023-04-22T19:53:34.076Z,17.63
2023-04-22T19:56:01.584Z,16.83
2023-04-22T19:58:28.916Z,14.68
2023-04-22T20:00:56.451Z,14.20
2023-04-22T20:03:24.093Z,14.52
2023-04-22T20:05:52.056Z,13.30
2023-04-22T20:08:19.951Z,13.98
2023-04-22T20:10:49.523Z,12.10
2023-04-22T20:13:17.562Z,13.55
2023-04-22T20:15:44.984Z,12.15
2023-04-22T20:18:12.443Z,12.70
2023-04-22T20:20:41.130Z,11.30
2023-04-22T20:23:10.703Z,10.77
2023-04-22T20:25:42.014Z,13.13
2023-04-22T20:28:10.592Z,11.57
2023-04-22T20:30:38.089Z,11.38
2023-04-22T20:33:05.849Z,10.93
2023-04-22T20:35:35.575Z,12.52
2023-04-22T20:38:02.872Z,10.00
2023-04-22T20:40:30.238Z,10.15
2023-04-22T20:43:00.944Z,12.02
2023-04-22T20:45:28.603Z,10.00
2023-04-22T20:47:58.215Z,11.90
2023-04-22T20:50:25.688Z,9.45
2023-04-22T20:52:53.224Z,10.82
2023-04-22T20:55:21.704Z,9.57
2023-04-22T20:57:48.991Z,10.45
2023-04-22T21:00:16.609Z,10.00
2023-04-22T21:02:44.934Z,12.50
2023-04-22T21:05:12.614Z,10.52
2023-04-22T21:07:40.550Z,10.25
2023-04-22T21:10:08.223Z,11.52
2023-04-22T21:12:35.639Z,9.35
2023-04-22T21:15:03.204Z,10.50
2023-04-22T21:17:31.659Z,10.57
2023-04-22T21:19:59.287Z,10.18
2023-04-22T21:22:26.808Z,10.68
2023-04-22T21:24:54.753Z,11.27
2023-04-22T21:27:22.762Z,10.05
2023-04-22T21:29:50.393Z,11.63
2023-04-22T21:32:20.148Z,11.82
2023-04-22T21:34:47.649Z,10.82
2023-04-22T21:37:14.937Z,10.85
2023-04-22T21:39:42.240Z,11.18
2023-04-22T21:42:09.540Z,11.70
2023-04-22T21:44:37.980Z,11.63
2023-04-22T21:47:06.641Z,11.68
2023-04-22T21:49:33.863Z,10.32
2023-04-22T21:52:01.192Z,11.77
2023-04-22T21:54:28.645Z,11.38
2023-04-22T21:56:57.569Z,11.82
2023-04-22T21:59:24.889Z,11.65
2023-04-22T22:01:52.373Z,12.95
2023-04-22T22:04:20.013Z,12.43
2023-04-22T22:06:48.740Z,11.85
2023-04-22T22:09:16.195Z,12.68
2023-04-22T22:11:43.495Z,12.68
2023-04-22T22:14:10.810Z,11.20
2023-04-22T22:16:38.438Z,11.85
2023-04-22T22:19:06.330Z,12.68
2023-04-22T22:21:33.621Z,12.88
2023-04-22T22:24:00.924Z,12.10
2023-04-22T22:26:29.063Z,12.63
2023-04-22T22:28:56.474Z,13.00
2023-04-22T22:31:23.730Z,12.93
2023-04-22T22:33:50.998Z,12.60
2023-04-22T22:36:19.011Z,12.93
2023-04-22T22:38:46.334Z,11.13
2023-04-22T22:41:13.984Z,11.65
2023-04-22T22:43:41.260Z,11.43
2023-04-22T22:46:09.405Z,11.18
2023-04-22T22:48:36.769Z,11.43
2023-04-22T22:51:04.099Z,12.05
2023-04-22T22:53:32.996Z,11.73
2023-04-22T22:56:00.392Z,10.90
2023-04-22T22:58:27.703Z,12.45
2023-04-22T23:00:54.868Z,13.18
2023-04-22T23:03:22.534Z,12.73
2023-04-22T23:05:50.019Z,10.80
2023-04-22T23:08:19.362Z,11.45
2023-04-22T23:10:46.652Z,11.50
2023-04-22T23:13:14.012Z,10.52
2023-04-22T23:15:41.964Z,10.50
2023-04-22T23:18:10.055Z,10.63
2023-04-22T23:20:37.986Z,10.13
2023-04-22T23:23:05.292Z,11.45
2023-04-22T23:25:32.638Z,11.98
2023-04-22T23:28:00.577Z,10.35
2023-04-22T23:30:27.958Z,11.52
2023-04-22T23:32:57.540Z,10.25
2023-04-22T23:35:27.360Z,10.57
2023-04-22T23:37:54.871Z,11.32
2023-04-22T23:40:22.139Z,9.60
2023-04-22T23:42:49.433Z,9.50
2023-04-22T23:45:16.848Z,8.93
2023-04-22T23:47:44.048Z,10.10
2023-04-22T23:50:12.054Z,9.35
2023-04-22T23:52:40.834Z,9.95
2023-04-22T23:55:10.178Z,9.75
2023-04-22T23:57:38.117Z,9.90
